Time;durP1;ratioP1;P1;durP2;ratioP2;P2;SDS_P1;SDS_P2;PMS_P1;PMS_P2;Temp;Humidity;BMP_temperature;BMP_pressure;BME280_temperature;BME280_humidity;BME280_pressure;Samples;Min_cycle;Max_cycle;Signal;HPM_P1;HPM_P2
2021/03/12 00:04:25;;;;;;;0.23;0.23;;;;;;;;;;10553429;27;20306;-78
2021/03/12 00:09:27;;;;;;;1.17;0.20;;;;;;;;;;10571774;27;20223;-77
2021/03/12 00:14:28;;;;;;;0.10;0.10;;;;;;;;;;10572609;27;20196;-77
2021/03/12 00:19:31;;;;;;;0.10;0.10;;;;;;;;;;10581037;27;20285;-79
2021/03/12 00:24:32;;;;;;;0.20;0.20;;;;;;;;;;10580366;27;20222;-78
2021/03/12 00:29:34;;;;;;;0.20;0.20;;;;;;;;;;10573862;27;20217;-78
2021/03/12 00:34:36;;;;;;;0.13;0.13;;;;;;;;;;10572683;27;20187;-76
2021/03/12 00:39:38;;;;;;;0.50;0.20;;;;;;;;;;10573536;27;20710;-76
2021/03/12 00:44:40;;;;;;;0.03;0.03;;;;;;;;;;10571890;27;20202;-76
2021/03/12 00:49:43;;;;;;;1.03;0.20;;;;;;;;;;10549609;27;20241;-79
2021/03/12 00:54:44;;;;;;;0.10;0.10;;;;;;;;;;10579176;28;20268;-77
2021/03/12 00:59:46;;;;;;;1.43;0.40;;;;;;;;;;10586899;27;20639;-77
2021/03/12 01:04:49;;;;;;;1.00;0.30;;;;;;;;;;10580797;28;20206;-77
2021/03/12 01:09:51;;;;;;;2.70;0.40;;;;;;;;;;10580072;28;20283;-78
2021/03/12 01:15:01;;;;;;;0.37;0.20;;;;;;;;;;10576054;28;20183;-78
2021/03/12 01:20:04;;;;;;;1.07;0.17;;;;;;;;;;10557352;28;20218;-77
2021/03/12 01:25:07;;;;;;;0.20;0.20;;;;;;;;;;10592779;27;20257;-77
2021/03/12 01:30:10;;;;;;;1.17;0.43;;;;;;;;;;10552912;28;20625;-77
2021/03/12 01:35:13;;;;;;;0.57;0.20;;;;;;;;;;10573364;28;20191;-77
2021/03/12 01:40:16;;;;;;;0.20;0.20;;;;;;;;;;10571438;28;20301;-77
2021/03/12 01:45:25;;;;;;;0.30;0.20;;;;;;;;;;10569900;28;20736;-78
2021/03/12 01:50:27;;;;;;;1.20;0.33;;;;;;;;;;10580648;27;20299;-78
2021/03/12 01:55:30;;;;;;;1.70;0.10;;;;;;;;;;10552320;27;20293;-76
2021/03/12 02:00:32;;;;;;;0.20;0.10;;;;;;;;;;10585513;27;20245;-77
2021/03/12 02:05:37;;;;;;;1.03;0.20;;;;;;;;;;10558205;27;20207;-77
2021/03/12 02:10:38;;;;;;;0.73;0.20;;;;;;;;;;10565358;27;20210;-76
2021/03/12 02:15:48;;;;;;;0.00;0.00;;;;;;;;;;10583457;27;20194;-78
2021/03/12 02:20:53;;;;;;;0.20;0.10;;;;;;;;;;10585702;27;20211;-78
2021/03/12 02:25:57;;;;;;;0.10;0.10;;;;;;;;;;10605792;27;20252;-77
2021/03/12 02:31:01;;;;;;;0.47;0.10;;;;;;;;;;10591172;27;20722;-77
2021/03/12 02:36:04;;;;;;;0.20;0.20;;;;;;;;;;10563548;27;20275;-78
2021/03/12 02:41:06;;;;;;;0.67;0.20;;;;;;;;;;10585602;27;20301;-78
2021/03/12 02:46:09;;;;;;;0.83;0.20;;;;;;;;;;10584600;27;20293;-78
2021/03/12 02:51:12;;;;;;;0.40;0.27;;;;;;;;;;10564718;27;20718;-77
2021/03/12 02:56:14;;;;;;;0.40;0.20;;;;;;;;;;10570616;27;20299;-78
2021/03/12 03:01:17;;;;;;;0.40;0.10;;;;;;;;;;10583316;27;20902;-77
2021/03/12 03:06:19;;;;;;;1.17;0.20;;;;;;;;;;10574626;27;20283;-78
2021/03/12 03:11:21;;;;;;;0.13;0.03;;;;;;;;;;10581524;27;20219;-77
2021/03/12 03:16:34;;;;;;;2.30;0.20;;;;;;;;;;10579859;27;20202;-78
2021/03/12 03:21:37;;;;;;;1.93;0.40;;;;;;;;;;10585168;27;20262;-79
2021/03/12 03:26:39;;;;;;;0.63;0.20;;;;;;;;;;10578078;27;20274;-77
2021/03/12 03:31:41;;;;;;;0.73;0.30;;;;;;;;;;10579640;27;20781;-78
2021/03/12 03:36:43;;;;;;;1.30;0.40;;;;;;;;;;10561541;27;20219;-77
2021/03/12 03:41:47;;;;;;;0.27;0.20;;;;;;;;;;10579387;27;20252;-78
2021/03/12 03:46:54;;;;;;;0.13;0.13;;;;;;;;;;10577162;27;20203;-77
2021/03/12 03:51:56;;;;;;;0.53;0.10;;;;;;;;;;10582405;27;20214;-77
2021/03/12 03:56:59;;;;;;;0.83;0.30;;;;;;;;;;10571672;27;20183;-77
2021/03/12 04:02:02;;;;;;;1.30;0.30;;;;;;;;;;10575323;27;20659;-77
2021/03/12 04:07:05;;;;;;;0.30;0.30;;;;;;;;;;10576626;27;20523;-78
2021/03/12 04:12:08;;;;;;;0.57;0.30;;;;;;;;;;10580528;27;20250;-78
2021/03/12 04:17:17;;;;;;;0.27;0.23;;;;;;;;;;10560689;27;20187;-78
2021/03/12 04:22:19;;;;;;;0.70;0.30;;;;;;;;;;10573531;27;20260;-78
2021/03/12 04:27:21;;;;;;;2.33;0.37;;;;;;;;;;10576205;27;21106;-77
2021/03/12 04:32:24;;;;;;;1.33;0.33;;;;;;;;;;10577846;27;20257;-77
2021/03/12 04:37:26;;;;;;;0.73;0.23;;;;;;;;;;10575324;27;20240;-78
2021/03/12 04:42:27;;;;;;;3.97;0.73;;;;;;;;;;10580837;27;20651;-77
2021/03/12 04:47:38;;;;;;;0.87;0.10;;;;;;;;;;10580439;27;20480;-78
2021/03/12 04:52:40;;;;;;;0.83;0.30;;;;;;;;;;10575786;27;20240;-78
2021/03/12 04:57:42;;;;;;;1.93;0.40;;;;;;;;;;10568962;28;20267;-78
2021/03/12 05:02:45;;;;;;;1.47;0.50;;;;;;;;;;10579846;28;20211;-78
2021/03/12 05:07:47;;;;;;;0.80;0.30;;;;;;;;;;10585395;28;20215;-78
2021/03/12 05:12:48;;;;;;;0.80;0.17;;;;;;;;;;10580700;28;20221;-78
2021/03/12 05:18:06;;;;;;;1.20;0.47;;;;;;;;;;10570292;28;20696;-77
2021/03/12 05:23:08;;;;;;;0.70;0.37;;;;;;;;;;10570838;27;20242;-77
2021/03/12 05:28:09;;;;;;;5.37;0.50;;;;;;;;;;10568441;28;20215;-77
2021/03/12 05:33:12;;;;;;;0.70;0.40;;;;;;;;;;10579269;27;20219;-77
2021/03/12 05:38:16;;;;;;;1.20;0.53;;;;;;;;;;10587049;27;20598;-77
2021/03/12 05:43:18;;;;;;;2.23;0.53;;;;;;;;;;10559883;27;20578;-78
2021/03/12 05:48:26;;;;;;;0.77;0.40;;;;;;;;;;10582121;27;20316;-77
2021/03/12 05:53:28;;;;;;;2.33;0.60;;;;;;;;;;10577732;27;20191;-75
2021/03/12 05:58:29;;;;;;;1.87;0.73;;;;;;;;;;10571452;27;20195;-77
2021/03/12 06:03:32;;;;;;;4.77;0.90;;;;;;;;;;10573880;27;20199;-75
2021/03/12 06:08:34;;;;;;;1.10;0.43;;;;;;;;;;10582172;27;20302;-76
2021/03/12 06:13:49;;;;;;;3.40;0.87;;;;;;;;;;10584491;27;20227;-76
2021/03/12 06:19:11;;;;;;;0.33;0.33;;;;;;;;;;10555433;27;20272;-77
2021/03/12 06:24:22;;;;;;;3.20;0.73;;;;;;;;;;10570160;27;20203;-76
2021/03/12 06:29:34;;;;;;;2.10;0.90;;;;;;;;;;10550710;27;20214;-76
2021/03/12 06:34:37;;;;;;;4.40;1.70;;;;;;;;;;10575334;27;20329;-76
2021/03/12 06:39:40;;;;;;;2.63;0.63;;;;;;;;;;10573507;27;20694;-76
2021/03/12 06:44:41;;;;;;;2.37;0.67;;;;;;;;;;10579972;27;20225;-76
2021/03/12 06:49:52;;;;;;;2.70;1.70;;;;;;;;;;10582141;27;20635;-77
2021/03/12 06:54:55;;;;;;;4.43;0.90;;;;;;;;;;10570899;27;20234;-77
2021/03/12 06:59:57;;;;;;;2.37;0.87;;;;;;;;;;10574269;27;20682;-77
2021/03/12 07:05:00;;;;;;;2.13;0.80;;;;;;;;;;10585106;27;20238;-77
2021/03/12 07:10:04;;;;;;;6.33;1.03;;;;;;;;;;10558045;27;20256;-77
2021/03/12 07:15:07;;;;;;;2.33;0.30;;;;;;;;;;10582494;27;20298;-76
2021/03/12 07:20:11;;;;;;;4.40;1.10;;;;;;;;;;10566747;27;20329;-77
2021/03/12 07:25:14;;;;;;;2.90;0.80;;;;;;;;;;10572959;27;20693;-78
2021/03/12 07:30:16;;;;;;;4.10;1.00;;;;;;;;;;10547495;27;20245;-78
2021/03/12 07:35:19;;;;;;;1.40;0.60;;;;;;;;;;10561807;27;20188;-76
2021/03/12 07:40:21;;;;;;;1.33;0.53;;;;;;;;;;10557482;27;20284;-78
2021/03/12 07:45:23;;;;;;;3.17;0.80;;;;;;;;;;10555907;27;20261;-77
2021/03/12 07:50:27;;;;;;;3.50;0.70;;;;;;;;;;10578674;27;20635;-78
2021/03/12 07:55:45;;;;;;;2.33;0.73;;;;;;;;;;10570380;27;20214;-78
2021/03/12 08:01:05;;;;;;;1.23;0.50;;;;;;;;;;10575704;27;20250;-78
2021/03/12 08:06:21;;;;;;;1.43;0.67;;;;;;;;;;10580880;27;20293;-78
2021/03/12 08:11:27;;;;;;;5.10;0.73;;;;;;;;;;10581248;27;20241;-78
2021/03/12 08:16:29;;;;;;;2.10;0.63;;;;;;;;;;10571703;27;20202;-78
2021/03/12 08:21:34;;;;;;;0.70;0.47;;;;;;;;;;10564035;28;20210;-80
2021/03/12 08:26:51;;;;;;;3.47;0.90;;;;;;;;;;10576486;27;20714;-79
2021/03/12 08:31:53;;;;;;;2.43;0.80;;;;;;;;;;10567214;27;20225;-78
2021/03/12 08:36:55;;;;;;;1.50;0.50;;;;;;;;;;10586855;27;20392;-77
2021/03/12 08:41:57;;;;;;;3.70;1.17;;;;;;;;;;10570545;27;20230;-77
2021/03/12 08:46:59;;;;;;;2.67;1.00;;;;;;;;;;10556575;28;20261;-78
2021/03/12 08:52:01;;;;;;;2.47;1.17;;;;;;;;;;10583207;27;20211;-78
2021/03/12 08:57:18;;;;;;;2.67;1.15;;;;;;;;;;10562993;27;20203;-78
2021/03/12 09:02:24;;;;;;;2.20;1.00;;;;;;;;;;10552926;28;20220;-78
2021/03/12 09:07:26;;;;;;;3.17;1.10;;;;;;;;;;10569751;28;20210;-78
2021/03/12 09:12:28;;;;;;;5.05;1.20;;;;;;;;;;10572686;28;20245;-78
2021/03/12 09:17:37;;;;;;;2.63;0.90;;;;;;;;;;10562863;28;20280;-77
2021/03/12 09:22:39;;;;;;;2.15;1.17;;;;;;;;;;10538340;28;20216;-78
2021/03/12 09:27:41;;;;;;;2.63;1.10;;;;;;;;;;10537042;28;22095;-77
2021/03/12 09:32:49;;;;;;;2.67;1.07;;;;;;;;;;10562768;28;20307;-79
2021/03/12 09:37:51;;;;;;;2.37;0.90;;;;;;;;;;10582914;28;20207;-78
2021/03/12 09:42:53;;;;;;;2.17;0.90;;;;;;;;;;10575274;28;20267;-78
2021/03/12 09:47:56;;;;;;;1.17;0.77;;;;;;;;;;10587140;28;20225;-78
2021/03/12 09:52:58;;;;;;;2.20;0.80;;;;;;;;;;10558470;28;20219;-78
2021/03/12 09:58:02;;;;;;;2.53;0.90;;;;;;;;;;10579589;28;20957;-78
2021/03/12 10:03:05;;;;;;;2.73;1.10;;;;;;;;;;10573360;28;20264;-78
2021/03/12 10:08:07;;;;;;;8.47;1.30;;;;;;;;;;10554086;28;20218;-78
2021/03/12 10:13:09;;;;;;;3.87;1.17;;;;;;;;;;10578674;27;20742;-77
2021/03/12 10:18:17;;;;;;;2.27;1.00;;;;;;;;;;10577250;27;20186;-78
2021/03/12 10:23:24;;;;;;;2.20;0.63;;;;;;;;;;10585736;27;20217;-78
2021/03/12 10:28:26;;;;;;;1.37;0.63;;;;;;;;;;10571514;27;20681;-75
2021/03/12 10:33:30;;;;;;;2.20;0.80;;;;;;;;;;10545795;27;20199;-78
2021/03/12 10:38:34;;;;;;;2.37;0.90;;;;;;;;;;10574025;27;20214;-77
2021/03/12 10:43:36;;;;;;;4.17;1.00;;;;;;;;;;10568922;27;20206;-77
2021/03/12 10:48:40;;;;;;;2.73;1.00;;;;;;;;;;10579845;27;20221;-77
2021/03/12 10:53:45;;;;;;;5.30;1.50;;;;;;;;;;10576853;27;20252;-77
2021/03/12 10:58:48;;;;;;;3.57;1.13;;;;;;;;;;10578764;27;20260;-79
2021/03/12 11:03:51;;;;;;;4.27;1.33;;;;;;;;;;10562895;28;20206;-78
2021/03/12 11:08:53;;;;;;;2.13;1.00;;;;;;;;;;10576613;27;20234;-78
2021/03/12 11:13:56;;;;;;;4.95;1.60;;;;;;;;;;10577538;27;20203;-78
2021/03/12 11:18:58;;;;;;;3.30;1.40;;;;;;;;;;10573259;27;20215;-78
2021/03/12 11:24:00;;;;;;;3.85;1.35;;;;;;;;;;10570140;27;20198;-79
2021/03/12 11:29:02;;;;;;;3.63;1.30;;;;;;;;;;10563576;27;20242;-78
2021/03/12 11:34:06;;;;;;;3.42;1.42;;;;;;;;;;10555348;28;20714;-78
2021/03/12 11:39:08;;;;;;;2.80;1.48;;;;;;;;;;10559905;28;20310;-78
2021/03/12 11:44:10;;;;;;;2.70;1.20;;;;;;;;;;10583755;27;20594;-77
2021/03/12 11:49:13;;;;;;;3.57;1.40;;;;;;;;;;10585903;27;20214;-78
2021/03/12 11:54:16;;;;;;;3.07;1.40;;;;;;;;;;10564339;27;20351;-77
2021/03/12 11:59:18;;;;;;;4.00;1.40;;;;;;;;;;10563418;27;20273;-78
2021/03/12 12:04:21;;;;;;;4.05;1.30;;;;;;;;;;10558343;27;20199;-78
2021/03/12 12:09:22;;;;;;;3.30;1.23;;;;;;;;;;10578143;27;20215;-78
2021/03/12 12:14:24;;;;;;;5.72;1.50;;;;;;;;;;10572618;27;20236;-77
2021/03/12 12:19:26;;;;;;;3.13;1.42;;;;;;;;;;10584592;27;20253;-78
2021/03/12 12:24:28;;;;;;;3.53;1.10;;;;;;;;;;10568311;27;20188;-77
2021/03/12 12:29:29;;;;;;;3.15;1.40;;;;;;;;;;10561792;27;20223;-76
2021/03/12 12:34:32;;;;;;;2.05;1.25;;;;;;;;;;10564094;27;20538;-78
2021/03/12 12:39:33;;;;;;;2.72;1.10;;;;;;;;;;10579977;27;20249;-79
2021/03/12 12:44:35;;;;;;;2.83;0.98;;;;;;;;;;10581154;27;20207;-79
2021/03/12 12:49:38;;;;;;;2.53;0.80;;;;;;;;;;10574722;27;20501;-78
2021/03/12 12:54:39;;;;;;;2.80;1.20;;;;;;;;;;10567983;27;20191;-78
2021/03/12 12:59:42;;;;;;;1.73;0.73;;;;;;;;;;10580448;28;20674;-78
2021/03/12 13:04:44;;;;;;;1.30;0.90;;;;;;;;;;10574225;28;20749;-79
2021/03/12 13:09:46;;;;;;;1.33;0.67;;;;;;;;;;10577799;28;20263;-78
2021/03/12 13:14:50;;;;;;;1.70;0.87;;;;;;;;;;10572325;28;20237;-78
2021/03/12 13:19:54;;;;;;;2.47;0.83;;;;;;;;;;10584671;28;20219;-77
2021/03/12 13:24:56;;;;;;;1.80;0.93;;;;;;;;;;10598047;28;20289;-78
2021/03/12 13:29:58;;;;;;;2.47;1.10;;;;;;;;;;10587482;28;20260;-78
2021/03/12 13:35:01;;;;;;;1.77;0.60;;;;;;;;;;10577181;28;20252;-78
2021/03/12 13:40:04;;;;;;;3.73;1.10;;;;;;;;;;10578191;28;20215;-78
2021/03/12 13:45:06;;;;;;;1.70;0.70;;;;;;;;;;10577720;28;20287;-78
2021/03/12 13:50:10;;;;;;;1.73;0.60;;;;;;;;;;10580048;27;20218;-78
2021/03/12 13:55:13;;;;;;;2.77;0.90;;;;;;;;;;10580539;27;20214;-78
2021/03/12 14:00:15;;;;;;;2.93;0.60;;;;;;;;;;10583304;27;20301;-77
2021/03/12 14:05:18;;;;;;;4.57;1.17;;;;;;;;;;10566446;27;20319;-77
2021/03/12 14:10:19;;;;;;;3.30;1.00;;;;;;;;;;10581590;27;20210;-79
2021/03/12 14:15:21;;;;;;;3.37;0.77;;;;;;;;;;10584496;27;20604;-78
2021/03/12 14:20:24;;;;;;;4.03;0.90;;;;;;;;;;10589067;27;20214;-79
2021/03/12 14:25:37;;;;;;;1.67;0.60;;;;;;;;;;10587291;27;20378;-78
2021/03/12 14:30:38;;;;;;;3.23;0.73;;;;;;;;;;10581858;28;20222;-78
2021/03/12 14:35:41;;;;;;;5.50;0.97;;;;;;;;;;10574070;27;20200;-78
2021/03/12 14:40:42;;;;;;;3.73;0.87;;;;;;;;;;10577496;27;20208;-78
2021/03/12 14:45:44;;;;;;;1.23;0.60;;;;;;;;;;10577895;27;20249;-78
2021/03/12 14:50:47;;;;;;;4.53;1.00;;;;;;;;;;10581481;27;20218;-76
2021/03/12 14:55:49;;;;;;;3.47;0.70;;;;;;;;;;10574821;27;20641;-77
2021/03/12 15:00:51;;;;;;;1.00;0.80;;;;;;;;;;10575406;27;20977;-77
2021/03/12 15:05:55;;;;;;;3.37;1.10;;;;;;;;;;10574566;27;20274;-77
2021/03/12 15:10:57;;;;;;;2.20;0.87;;;;;;;;;;10573688;27;20751;-76
2021/03/12 15:15:59;;;;;;;2.23;1.00;;;;;;;;;;10572918;27;20206;-76
2021/03/12 15:21:01;;;;;;;1.47;0.87;;;;;;;;;;10569028;27;20694;-79
2021/03/12 15:26:03;;;;;;;1.40;0.60;;;;;;;;;;10586628;27;20277;-78
2021/03/12 15:31:05;;;;;;;3.73;1.17;;;;;;;;;;10572678;27;20261;-78
2021/03/12 15:36:08;;;;;;;2.60;0.87;;;;;;;;;;10573336;27;20210;-78
2021/03/12 15:41:10;;;;;;;2.73;1.10;;;;;;;;;;10559702;27;20288;-78
2021/03/12 15:46:12;;;;;;;4.83;0.70;;;;;;;;;;10576939;27;20711;-78
2021/03/12 15:51:14;;;;;;;2.97;0.77;;;;;;;;;;10567212;27;20218;-78
2021/03/12 15:56:19;;;;;;;0.67;0.40;;;;;;;;;;10572418;27;20243;-79
2021/03/12 16:01:21;;;;;;;3.50;0.90;;;;;;;;;;10581421;27;20227;-78
2021/03/12 16:06:24;;;;;;;3.07;1.00;;;;;;;;;;10562114;27;20208;-78
2021/03/12 16:11:25;;;;;;;2.37;0.83;;;;;;;;;;10577541;27;20282;-78
2021/03/12 16:16:27;;;;;;;4.33;0.80;;;;;;;;;;10572851;27;20647;-78
2021/03/12 16:21:30;;;;;;;1.70;0.70;;;;;;;;;;10570886;27;20218;-78
2021/03/12 16:26:44;;;;;;;4.43;1.30;;;;;;;;;;10574470;27;20211;-78
2021/03/12 16:31:46;;;;;;;3.77;1.17;;;;;;;;;;10567153;27;20229;-79
2021/03/12 16:36:49;;;;;;;3.00;1.00;;;;;;;;;;10569135;27;20187;-78
2021/03/12 16:41:51;;;;;;;3.77;1.20;;;;;;;;;;10568891;27;20291;-78
2021/03/12 16:46:52;;;;;;;5.97;1.10;;;;;;;;;;10578453;27;20650;-78
2021/03/12 16:51:55;;;;;;;5.40;1.20;;;;;;;;;;10557323;28;20268;-77
2021/03/12 16:57:07;;;;;;;1.93;0.77;;;;;;;;;;10577677;27;20553;-78
2021/03/12 17:02:08;;;;;;;4.03;0.83;;;;;;;;;;10549130;27;20229;-78
2021/03/12 17:07:12;;;;;;;3.60;1.20;;;;;;;;;;10550255;28;20252;-78
2021/03/12 17:12:13;;;;;;;4.27;1.00;;;;;;;;;;10546737;28;20284;-78
2021/03/12 17:17:15;;;;;;;3.20;1.10;;;;;;;;;;10549795;28;20260;-79
2021/03/12 17:22:18;;;;;;;2.90;0.80;;;;;;;;;;10539610;27;20731;-78
2021/03/12 17:27:31;;;;;;;4.57;1.27;;;;;;;;;;10557531;27;20964;-79
2021/03/12 17:32:33;;;;;;;2.43;0.70;;;;;;;;;;10589514;27;20218;-78
2021/03/12 17:37:35;;;;;;;2.50;0.77;;;;;;;;;;10591610;27;20191;-78
2021/03/12 17:42:37;;;;;;;2.87;0.73;;;;;;;;;;10581149;27;20225;-77
2021/03/12 17:47:39;;;;;;;3.17;1.23;;;;;;;;;;10581449;27;20536;-78
2021/03/12 17:52:42;;;;;;;4.37;1.33;;;;;;;;;;10568470;28;20284;-78
2021/03/12 17:57:56;;;;;;;5.03;1.40;;;;;;;;;;10583838;27;20219;-77
2021/03/12 18:02:59;;;;;;;2.23;0.93;;;;;;;;;;10584388;27;20237;-79
2021/03/12 18:08:03;;;;;;;4.80;1.17;;;;;;;;;;10583402;27;20202;-79
2021/03/12 18:13:05;;;;;;;4.27;1.33;;;;;;;;;;10582552;27;20266;-78
2021/03/12 18:18:07;;;;;;;6.13;2.10;;;;;;;;;;10575649;27;20202;-77
2021/03/12 18:23:11;;;;;;;1.60;0.80;;;;;;;;;;10585342;27;20272;-79
2021/03/12 18:28:17;;;;;;;3.53;1.17;;;;;;;;;;10584690;27;20225;-78
2021/03/12 18:33:19;;;;;;;4.00;1.20;;;;;;;;;;10568085;28;20215;-79
2021/03/12 18:38:22;;;;;;;3.30;1.27;;;;;;;;;;10585955;27;20636;-78
2021/03/12 18:43:23;;;;;;;1.77;0.90;;;;;;;;;;10539121;28;20207;-78
2021/03/12 18:48:26;;;;;;;1.50;0.70;;;;;;;;;;10582349;27;20218;-78
2021/03/12 18:53:29;;;;;;;3.33;0.80;;;;;;;;;;10556724;28;20592;-79
2021/03/12 18:58:40;;;;;;;4.57;1.80;;;;;;;;;;10568215;27;20659;-78
2021/03/12 19:03:42;;;;;;;4.27;1.20;;;;;;;;;;10567970;27;20195;-79
2021/03/12 19:08:46;;;;;;;3.87;1.10;;;;;;;;;;10556677;28;20215;-79
2021/03/12 19:13:48;;;;;;;4.93;1.40;;;;;;;;;;10585492;27;20525;-78
2021/03/12 19:18:50;;;;;;;3.87;1.40;;;;;;;;;;10579053;27;20211;-78
2021/03/12 19:23:53;;;;;;;5.30;1.43;;;;;;;;;;10578331;27;20314;-78
2021/03/12 19:29:04;;;;;;;4.23;1.50;;;;;;;;;;10563617;27;20219;-78
2021/03/12 19:34:05;;;;;;;2.40;0.90;;;;;;;;;;10548399;28;20700;-79
2021/03/12 19:39:09;;;;;;;2.70;1.17;;;;;;;;;;10552329;28;20211;-79
2021/03/12 19:44:12;;;;;;;5.80;1.50;;;;;;;;;;10543851;28;20683;-78
2021/03/12 19:49:13;;;;;;;5.97;1.20;;;;;;;;;;10550987;28;20215;-79
2021/03/12 19:54:24;;;;;;;2.40;0.70;;;;;;;;;;10574165;27;20252;-78
2021/03/12 19:59:27;;;;;;;3.43;1.13;;;;;;;;;;10568623;27;20262;-78
2021/03/12 20:04:31;;;;;;;1.70;0.83;;;;;;;;;;10573774;27;20206;-77
2021/03/12 20:09:35;;;;;;;2.80;1.10;;;;;;;;;;10553657;27;20222;-77
2021/03/12 20:14:37;;;;;;;2.43;0.73;;;;;;;;;;10572317;27;20199;-77
2021/03/12 20:19:39;;;;;;;3.00;0.73;;;;;;;;;;10573028;27;20211;-77
2021/03/12 20:24:41;;;;;;;5.10;1.20;;;;;;;;;;10551241;27;20613;-78
2021/03/12 20:29:47;;;;;;;6.40;1.33;;;;;;;;;;10562682;28;20229;-79
2021/03/12 20:34:49;;;;;;;5.23;1.20;;;;;;;;;;10557087;27;20197;-77
2021/03/12 20:39:52;;;;;;;5.40;1.30;;;;;;;;;;10578397;27;20663;-78
2021/03/12 20:44:55;;;;;;;4.63;1.40;;;;;;;;;;10568474;27;20195;-78
2021/03/12 20:49:57;;;;;;;4.60;1.20;;;;;;;;;;10578906;27;20679;-78
2021/03/12 20:55:00;;;;;;;3.67;1.03;;;;;;;;;;10569398;27;20274;-78
2021/03/12 21:00:12;;;;;;;1.70;1.07;;;;;;;;;;10573511;27;20215;-77
2021/03/12 21:05:14;;;;;;;3.93;1.30;;;;;;;;;;10587226;27;20187;-78
2021/03/12 21:10:17;;;;;;;2.43;1.33;;;;;;;;;;10589144;28;20223;-78
2021/03/12 21:15:19;;;;;;;1.10;0.63;;;;;;;;;;10553965;28;20198;-78
2021/03/12 21:20:22;;;;;;;3.13;1.10;;;;;;;;;;10565993;28;20229;-78
2021/03/12 21:25:40;;;;;;;1.93;0.77;;;;;;;;;;10552656;28;20275;-79
2021/03/12 21:30:42;;;;;;;2.40;0.70;;;;;;;;;;10551297;28;20713;-80
2021/03/12 21:35:45;;;;;;;7.13;2.33;;;;;;;;;;10575050;28;20291;-78
2021/03/12 21:40:48;;;;;;;1.97;1.03;;;;;;;;;;10568752;28;20237;-78
2021/03/12 21:45:49;;;;;;;3.43;0.80;;;;;;;;;;10572215;28;20299;-79
2021/03/12 21:50:51;;;;;;;2.50;0.83;;;;;;;;;;10574022;28;20211;-78
2021/03/12 21:55:54;;;;;;;2.13;0.90;;;;;;;;;;10593670;28;20198;-79
2021/03/12 22:00:55;;;;;;;4.00;1.17;;;;;;;;;;10580547;28;20218;-79
2021/03/12 22:05:57;;;;;;;1.77;0.60;;;;;;;;;;10586602;27;20689;-79
2021/03/12 22:11:00;;;;;;;3.20;0.73;;;;;;;;;;10571766;28;20542;-78
2021/03/12 22:16:01;;;;;;;1.73;0.80;;;;;;;;;;10580258;27;20210;-79
2021/03/12 22:21:03;;;;;;;2.60;0.97;;;;;;;;;;10594136;27;20275;-77
2021/03/12 22:26:06;;;;;;;1.67;0.57;;;;;;;;;;10585893;27;20206;-80
2021/03/12 22:31:18;;;;;;;4.67;1.00;;;;;;;;;;10593308;27;20717;-79
2021/03/12 22:36:22;;;;;;;6.13;1.80;;;;;;;;;;10592862;27;20766;-79
2021/03/12 22:41:25;;;;;;;2.53;1.37;;;;;;;;;;10573703;28;20341;-79
2021/03/12 22:46:27;;;;;;;3.90;1.00;;;;;;;;;;10575478;27;20284;-79
2021/03/12 22:51:29;;;;;;;3.03;0.93;;;;;;;;;;10601617;27;20222;-79
2021/03/12 22:56:31;;;;;;;3.90;1.07;;;;;;;;;;10595412;27;20187;-79
2021/03/12 23:01:39;;;;;;;5.10;1.20;;;;;;;;;;10589942;27;20218;-79
2021/03/12 23:06:41;;;;;;;2.90;0.77;;;;;;;;;;10593896;27;20246;-77
2021/03/12 23:11:44;;;;;;;2.47;0.93;;;;;;;;;;10573799;27;20242;-77
2021/03/12 23:16:45;;;;;;;3.23;0.77;;;;;;;;;;10566404;27;20561;-77
2021/03/12 23:21:47;;;;;;;3.43;0.67;;;;;;;;;;10579691;27;20246;-78
2021/03/12 23:26:51;;;;;;;2.57;0.77;;;;;;;;;;10576119;27;20207;-79
2021/03/12 23:32:06;;;;;;;3.83;0.77;;;;;;;;;;10579087;27;20220;-79
2021/03/12 23:37:08;;;;;;;1.00;0.40;;;;;;;;;;10572631;27;20218;-77
2021/03/12 23:42:10;;;;;;;3.03;0.70;;;;;;;;;;10596464;27;20227;-77
2021/03/12 23:47:12;;;;;;;1.00;0.30;;;;;;;;;;10583840;27;20655;-78
2021/03/12 23:52:14;;;;;;;3.70;1.10;;;;;;;;;;10571143;27;20348;-78
2021/03/12 23:57:16;;;;;;;2.20;0.63;;;;;;;;;;10575974;27;20186;-78
